x

South Hatteras - 225 South Of Cape Hatteras (41002) Wave Buoy

2:50 - Sat 10th Dec 2016 All times are EST. -5 hours from GMT.

  • Sig Wave height 4.3ft
  • Swell Direction
  • Peak Period 8s
  • Average Period 6s
  • Wind
    7mph, 11mph gusts
  • Sea Temp 73°f
  • Luft Temp 60°f
  • Sea Pressure 1028mb
  • South Hatteras - 225 South Of Cape Hatteras
  • South Hatteras - 225 South Of Cape Hatteras

More Historic Weather Station data

Upgrade to MSW Pro to gain access to the past 30 days of data for over 8000 Wavebouys and Weather Stations around the globe.

Join Pro

Comparision Forecast

View Surf forecast
   
Sa 12/10 2:50 4.5ft 8s 6s 7 11 mph 1028mb 73f 60f
1:50 4.5ft 9s 6s 9 13 mph 1027.8mb 73f 60f
12:50 4.5ft 9s 6s 9 16 mph 1028.3mb 73f 60f
11:50 4.5ft 8s 6s 9 13 mph 1029.2mb 73f 60f
10:50 5ft 8s 6s 13 16 mph 1030mb 73f 60f
9:50 5ft 9s 6s 9 13 mph 1030.1mb 73f 60f
8:50 5ft 7s 6s 11 13 mph 1029.8mb 73f 59f
7:50 5ft 9s 6s 9 13 mph 1029.4mb 73f 59f
6:50 5ft 8s 6s 11 16 mph 1029mb 73f 59f
5:50 5ft 7s 6s 7 11 mph 1028.1mb 73f 58f
4:50 5ft 8s 6s 13 18 mph 1027.2mb 73f 58f
3:50 5.5ft 8s 6s 16 20 mph 1026.7mb 73f 58f
2:50 5.5ft 7s 6s 9 13 mph 1027.2mb 73f 58f
1:50 6ft 7s 6s 13 18 mph 1026.9mb 73f 58f
12:50 5.5ft 8s 6s 13 18 mph 1026.6mb 73f 58f
Fr 12/09 11:50 5.5ft 7s 5s 13 18 mph 1026.7mb 73f 57f
10:50 5.5ft 8s 6s 16 20 mph 1026.8mb 73f 58f
9:50 6ft 7s 5s 13 20 mph 1026.8mb 73f 58f
8:50 6ft 8s 5s 18 25 mph 1026.3mb 73f 58f
7:50 6ft 7s 6s 18 25 mph 1025.9mb 73f 58f
6:50 6ft 8s 5s 18 27 mph 1025.7mb 73f 59f
5:50 5.5ft 6s 5s 18 22 mph 1025.1mb 73f 59f
4:50 6ft 8s 6s 20 25 mph 1024.2mb 73f 59f
3:50 6ft 8s 6s 20 27 mph 1023.6mb 73f 60f
2:50 6.5ft 7s 6s 18 25 mph 1023mb 73f 60f
1:50 6ft 7s 5s 20 27 mph 1022.7mb 73f 60f
12:50 6ft 7s 6s 20 27 mph 1022.6mb 73f 61f
11:50 6ft 8s 6s 20 25 mph 1022.7mb 73f 61f
10:50 7ft 7s 6s 20 27 mph 1023.3mb 73f 62f
9:50 6.5ft 8s 6s 20 27 mph 1022.8mb 73f 62f
8:50 6.5ft 7s 6s 20 27 mph 1022.1mb 74f 62f
7:50 7ft 8s 6s 20 27 mph 1021.9mb 74f 62f
6:50 7.5ft 7s 6s 20 25 mph 1021mb 74f 63f
5:50 7ft 7s 6s 20 25 mph 1019.9mb 74f 63f
4:50 7ft 7s 5s 25 29 mph 1018.9mb 74f 64f
3:50 7ft 6s 5s 22 29 mph 1018.9mb 74f 65f
2:50 6.5ft 7s 5s 25 29 mph 1018.2mb 74f 65f
1:50 6ft 6s 5s 22 27 mph 1017.7mb 74f 66f
12:50 5.5ft 6s 5s 25 29 mph 1017.2mb 74f 68f
Do 12/08 11:50 5ft 5s 5s 22 27 mph 1017.6mb 74f 70f
10:50 4.5ft 10s 5s 18 22 mph 1017.4mb 74f 71f
9:50 5ft 5s 5s 20 22 mph 1017.3mb 74f 73f
8:50 4.5ft 5s 5s 18 20 mph 1017.3mb 74f 73f
7:50 4.5ft 9s 5s 18 22 mph 1017.2mb 74f 73f
6:50 4.5ft 9s 5s 13 16 mph 1017mb 74f 73f
5:50 4.5ft 10s 5s 9 11 mph 1016.7mb 74f 73f
4:50 4.5ft 9s 5s 13
mph
1016.5mb 74f 73f
3:50 4.5ft 9s 5s 11 16 mph 1016.3mb 74f 73f
2:50 4.5ft 9s 5s 16 18 mph 1016.1mb 74f 73f
1:50 4.5ft 10s 6s 16 18 mph 1016mb 74f 73f
12:50 4.5ft 10s 6s 13 16 mph 1016.3mb 74f 73f
11:50 4.5ft 10s 6s 13 16 mph 1017mb 74f 73f
10:50 4.5ft 10s 6s 13 16 mph 1018mb 74f 73f
9:50 4.5ft 10s 7s 9 11 mph 1018.6mb 74f 73f
8:50 4.5ft 10s 6s 4 7 mph 1018.3mb 74f 72f
7:50 5ft 10s 6s 4 7 mph 1017.9mb 74f 72f
6:50 5ft 11s 6s 4 7 mph 1017.7mb 73f 71f
5:50 5ft 10s 6s 4 7 mph 1017.6mb 73f 71f
4:50 5.5ft 10s 7s 7 9 mph 1017.4mb 73f 71f
3:50 5.5ft 7s 6s 11 13 mph 1017.3mb 73f 71f
2:50 6ft 7s 6s 11 13 mph 1017.2mb 73f 71f
12:50 6ft 7s 6s 9 13 mph 1017.2mb 74f 71f
Mi 12/07 11:50 5.5ft 8s 6s 4 7 mph 1017.5mb 74f 70f
10:50 6ft 7s 6s 7 9 mph 1018mb 74f 70f
9:50 6ft 7s 6s 4 7 mph 1018.1mb 73f 70f
8:50 5.5ft 7s 6s 7 9 mph 1017.9mb 74f 70f
7:50 6.5ft 7s 6s 9 13 mph 1017.6mb 74f 70f
6:50 6ft 7s 6s 11 16 mph 1017.4mb 74f 70f
5:50 6.5ft 8s 6s 11 13 mph 1017mb 74f 70f
4:50 6ft 7s 6s 11 13 mph 1016.4mb 74f 70f
3:50 6.5ft 8s 6s 13 18 mph 1015.7mb 74f 71f
2:50 7ft 8s 6s 13 18 mph 1015.1mb 74f 71f
1:50 7ft 8s 6s 16 20 mph 1014.7mb 74f 71f
12:50 7ft 8s 6s 16 18 mph 1014.6mb 74f 71f
11:50 7.5ft 8s 6s 16 18 mph 1014.7mb 74f 71f
10:50 8ft 8s 6s 18 20 mph 1015.2mb 74f 71f
9:50 9ft 8s 7s 16 20 mph 1015.2mb 74f 72f
8:50 9ft 9s 7s 16 18 mph 1014.6mb 74f 71f
7:50 9ft 9s 7s 16 18 mph 1013.8mb 74f 72f
6:50 9.5ft 9s 7s 18 20 mph 1013.1mb 74f 72f
5:50 10ft 9s 7s 18 22 mph 1012.3mb 74f 72f
4:50 10ft 10s 7s 22 27 mph 1011.1mb 74f 73f
3:50 11ft 9s 7s 22 27 mph 1010.5mb 74f 73f
2:50 11.5ft 9s 7s 22 27 mph 1010mb 74f 73f
1:50 11ft 9s 7s 25 31 mph 1009.1mb 74f 76f
12:50 12ft 9s 7s 25 31 mph 1009mb 74f 76f
Di 12/06 11:50 12ft 9s 7s 27 31 mph 1009.2mb 74f 76f
10:50 11.5ft 9s 7s 27 36 mph 1009.1mb 74f 75f
9:50 12ft 9s 7s 27 34 mph 1008.9mb 74f 76f
8:50 11.5ft 8s 7s 27 34 mph 1008.6mb 74f 75f